sensor_id;sensor_type;location;lat;lon;timestamp;pressure;altitude;pressure_sealevel;temperature;humidity
70229;BME280;57617;51.988;5.854;2022-09-20T00:01:11;101797.41;;;14.10;70.43
70229;BME280;57617;51.988;5.854;2022-09-20T00:03:38;101795.53;;;14.11;70.21
70229;BME280;57617;51.988;5.854;2022-09-20T00:06:06;101782.94;;;14.10;70.61
70229;BME280;57617;51.988;5.854;2022-09-20T00:08:32;101786.47;;;14.10;70.28
70229;BME280;57617;51.988;5.854;2022-09-20T00:11:03;101782.34;;;14.08;70.75
70229;BME280;57617;51.988;5.854;2022-09-20T00:13:30;101791.03;;;14.05;70.01
70229;BME280;57617;51.988;5.854;2022-09-20T00:15:55;101793.16;;;14.03;70.16
70229;BME280;57617;51.988;5.854;2022-09-20T00:18:21;101796.94;;;14.02;70.23
70229;BME280;57617;51.988;5.854;2022-09-20T00:20:47;101773.22;;;13.91;70.60
70229;BME280;57617;51.988;5.854;2022-09-20T00:23:13;101786.50;;;13.99;70.37
70229;BME280;57617;51.988;5.854;2022-09-20T00:25:38;101793.97;;;14.03;70.58
70229;BME280;57617;51.988;5.854;2022-09-20T00:28:04;101788.28;;;14.05;70.50
70229;BME280;57617;51.988;5.854;2022-09-20T00:30:31;101782.59;;;14.06;70.44
70229;BME280;57617;51.988;5.854;2022-09-20T00:32:56;101784.25;;;14.07;70.60
70229;BME280;57617;51.988;5.854;2022-09-20T00:35:22;101794.34;;;14.07;70.71
70229;BME280;57617;51.988;5.854;2022-09-20T00:37:47;101787.81;;;14.08;70.44
70229;BME280;57617;51.988;5.854;2022-09-20T00:40:15;101786.97;;;14.07;70.40
70229;BME280;57617;51.988;5.854;2022-09-20T00:42:41;101789.13;;;14.05;70.59
70229;BME280;57617;51.988;5.854;2022-09-20T00:45:16;101793.75;;;14.05;70.74
70229;BME280;57617;51.988;5.854;2022-09-20T00:47:52;101792.91;;;14.04;70.72
70229;BME280;57617;51.988;5.854;2022-09-20T00:50:29;101792.09;;;14.04;70.75
70229;BME280;57617;51.988;5.854;2022-09-20T00:53:12;101783.06;;;14.03;70.61
70229;BME280;57617;51.988;5.854;2022-09-20T00:55:52;101786.88;;;14.02;70.74
70229;BME280;57617;51.988;5.854;2022-09-20T00:58:18;101796.47;;;14.05;70.79
70229;BME280;57617;51.988;5.854;2022-09-20T01:00:45;101782.47;;;14.01;70.64
70229;BME280;57617;51.988;5.854;2022-09-20T01:03:14;101782.59;;;14.06;71.24
70229;BME280;57617;51.988;5.854;2022-09-20T01:05:43;101785.91;;;14.08;70.90
70229;BME280;57617;51.988;5.854;2022-09-20T01:08:09;101789.22;;;14.10;70.96
70229;BME280;57617;51.988;5.854;2022-09-20T01:10:35;101785.16;;;14.13;70.54
70229;BME280;57617;51.988;5.854;2022-09-20T01:13:01;101786.00;;;14.13;70.73
70229;BME280;57617;51.988;5.854;2022-09-20T01:15:28;101779.47;;;14.14;71.09
70229;BME280;57617;51.988;5.854;2022-09-20T01:17:57;101783.03;;;14.15;70.76
70229;BME280;57617;51.988;5.854;2022-09-20T01:20:31;101783.03;;;14.15;70.94
70229;BME280;57617;51.988;5.854;2022-09-20T01:28:25;101778.03;;;14.12;70.44
70229;BME280;57617;51.988;5.854;2022-09-20T01:34:26;101790.16;;;14.04;71.08
70229;BME280;57617;51.988;5.854;2022-09-20T01:39:29;101791.25;;;14.03;71.31
70229;BME280;57617;51.988;5.854;2022-09-20T01:42:01;101786.28;;;14.00;70.98
70229;BME280;57617;51.988;5.854;2022-09-20T01:44:50;101787.72;;;14.03;71.08
70229;BME280;57617;51.988;5.854;2022-09-20T01:48:02;101781.16;;;14.04;71.29
70229;BME280;57617;51.988;5.854;2022-09-20T01:53:34;101789.38;;;14.04;71.11
70229;BME280;57617;51.988;5.854;2022-09-20T01:56:53;101780.31;;;14.03;71.20
70229;BME280;57617;51.988;5.854;2022-09-20T02:00:11;101785.78;;;14.03;71.42
70229;BME280;57617;51.988;5.854;2022-09-20T02:02:33;101785.78;;;14.03;71.31
70229;BME280;57617;51.988;5.854;2022-09-20T02:05:11;101779.75;;;14.01;70.88
70229;BME280;57617;51.988;5.854;2022-09-20T02:16:35;101780.44;;;13.97;70.96
70229;BME280;57617;51.988;5.854;2022-09-20T02:19:20;101795.19;;;13.96;71.42
70229;BME280;57617;51.988;5.854;2022-09-20T02:30:06;101783.78;;;13.99;71.37
70229;BME280;57617;51.988;5.854;2022-09-20T02:32:45;101785.69;;;13.98;71.39
70229;BME280;57617;51.988;5.854;2022-09-20T02:35:50;101781.63;;;14.01;71.07
70229;BME280;57617;51.988;5.854;2022-09-20T02:38:31;101776.66;;;13.98;70.81
70229;BME280;57617;51.988;5.854;2022-09-20T02:41:26;101773.66;;;13.99;71.28
70229;BME280;57617;51.988;5.854;2022-09-20T02:44:08;101788.41;;;13.98;70.97
70229;BME280;57617;51.988;5.854;2022-09-20T02:49:41;101788.63;;;13.97;71.23
70229;BME280;57617;51.988;5.854;2022-09-20T02:52:19;101776.06;;;13.96;71.00
70229;BME280;57617;51.988;5.854;2022-09-20T02:54:58;101778.56;;;13.97;71.27
70229;BME280;57617;51.988;5.854;2022-09-20T03:00:13;101778.56;;;13.97;71.05
70229;BME280;57617;51.988;5.854;2022-09-20T03:05:30;101780.81;;;14.00;71.25
70229;BME280;57617;51.988;5.854;2022-09-20T03:08:39;101775.34;;;14.00;71.29
70229;BME280;57617;51.988;5.854;2022-09-20T03:11:42;101768.81;;;14.01;71.32
70229;BME280;57617;51.988;5.854;2022-09-20T03:14:39;101777.00;;;14.01;71.62
70229;BME280;57617;51.988;5.854;2022-09-20T03:17:56;101783.28;;;14.02;71.02
70229;BME280;57617;51.988;5.854;2022-09-20T03:20:40;101780.81;;;14.00;71.43
70229;BME280;57617;51.988;5.854;2022-09-20T03:23:36;101781.28;;;13.97;71.20
70229;BME280;57617;51.988;5.854;2022-09-20T03:26:31;101775.47;;;13.94;71.27
70229;BME280;57617;51.988;5.854;2022-09-20T03:31:31;101782.25;;;13.91;71.19
70229;BME280;57617;51.988;5.854;2022-09-20T03:34:18;101782.81;;;13.93;71.66
70229;BME280;57617;51.988;5.854;2022-09-20T03:42:27;101784.63;;;13.88;71.58
70229;BME280;57617;51.988;5.854;2022-09-20T03:50:19;101790.91;;;13.88;71.34
70229;BME280;57617;51.988;5.854;2022-09-20T03:53:04;101787.59;;;13.86;71.58
70229;BME280;57617;51.988;5.854;2022-09-20T03:55:58;101791.97;;;13.87;71.86
70229;BME280;57617;51.988;5.854;2022-09-20T04:01:27;101791.03;;;13.93;71.82
70229;BME280;57617;51.988;5.854;2022-09-20T04:10:15;101791.25;;;13.92;71.66
70229;BME280;57617;51.988;5.854;2022-09-20T04:16:04;101789.59;;;13.91;71.78
70229;BME280;57617;51.988;5.854;2022-09-20T04:18:38;101784.25;;;13.84;71.82
70229;BME280;57617;51.988;5.854;2022-09-20T04:21:30;101785.94;;;13.85;72.09
70229;BME280;57617;51.988;5.854;2022-09-20T04:24:04;101789.13;;;13.82;72.00
70229;BME280;57617;51.988;5.854;2022-09-20T04:26:43;101788.78;;;13.90;72.48
70229;BME280;57617;51.988;5.854;2022-09-20T04:29:24;101790.09;;;13.88;71.89
70229;BME280;57617;51.988;5.854;2022-09-20T04:32:00;101786.16;;;13.84;72.07
70229;BME280;57617;51.988;5.854;2022-09-20T04:34:31;101793.75;;;13.82;72.04
70229;BME280;57617;51.988;5.854;2022-09-20T04:37:27;101793.75;;;13.82;71.95
70229;BME280;57617;51.988;5.854;2022-09-20T04:40:37;101798.63;;;13.80;72.19
70229;BME280;57617;51.988;5.854;2022-09-20T04:43:41;101801.00;;;13.76;71.94
70229;BME280;57617;51.988;5.854;2022-09-20T05:09:42;101812.16;;;13.63;72.71
70229;BME280;57617;51.988;5.854;2022-09-20T05:12:25;101816.78;;;13.63;72.28
70229;BME280;57617;51.988;5.854;2022-09-20T05:18:12;101817.03;;;13.61;72.81
70229;BME280;57617;51.988;5.854;2022-09-20T05:26:49;101822.94;;;13.58;73.13
70229;BME280;57617;51.988;5.854;2022-09-20T05:32:11;101820.22;;;13.58;72.87
70229;BME280;57617;51.988;5.854;2022-09-20T05:34:58;101814.53;;;13.60;72.66
70229;BME280;57617;51.988;5.854;2022-09-20T05:37:53;101813.59;;;13.54;73.19
70229;BME280;57617;51.988;5.854;2022-09-20T05:40:32;101823.34;;;13.62;72.53
70229;BME280;57617;51.988;5.854;2022-09-20T05:43:12;101818.69;;;13.62;72.96
70229;BME280;57617;51.988;5.854;2022-09-20T05:46:02;101829.84;;;13.61;72.75
70229;BME280;57617;51.988;5.854;2022-09-20T05:48:51;101830.91;;;13.60;72.72
70229;BME280;57617;51.988;5.854;2022-09-20T05:51:41;101828.41;;;13.58;72.61
70229;BME280;57617;51.988;5.854;2022-09-20T05:54:26;101826.75;;;13.57;72.93
70229;BME280;57617;51.988;5.854;2022-09-20T05:57:24;101829.34;;;13.52;72.82
70229;BME280;57617;51.988;5.854;2022-09-20T06:00:04;101827.69;;;13.51;72.98
70229;BME280;57617;51.988;5.854;2022-09-20T06:02:53;101826.84;;;13.51;73.00
70229;BME280;57617;51.988;5.854;2022-09-20T06:10:59;101840.16;;;13.47;72.75
70229;BME280;57617;51.988;5.854;2022-09-20T06:16:26;101842.28;;;13.45;72.98
70229;BME280;57617;51.988;5.854;2022-09-20T06:21:48;101852.13;;;13.46;72.70
70229;BME280;57617;51.988;5.854;2022-09-20T06:24:35;101857.13;;;13.49;73.33
70229;BME280;57617;51.988;5.854;2022-09-20T06:27:08;101856.19;;;13.55;73.12
70229;BME280;57617;51.988;5.854;2022-09-20T06:29:37;101850.38;;;13.63;72.83
70229;BME280;57617;51.988;5.854;2022-09-20T06:32:04;101852.78;;;13.71;73.02
70229;BME280;57617;51.988;5.854;2022-09-20T06:34:30;101854.78;;;13.76;72.52
70229;BME280;57617;51.988;5.854;2022-09-20T06:37:07;101863.09;;;13.81;72.56
70229;BME280;57617;51.988;5.854;2022-09-20T06:40:07;101861.34;;;13.86;73.13
70229;BME280;57617;51.988;5.854;2022-09-20T06:42:57;101864.78;;;13.93;72.45
70229;BME280;57617;51.988;5.854;2022-09-20T06:45:25;101863.00;;;13.99;72.40
70229;BME280;57617;51.988;5.854;2022-09-20T06:47:50;101855.63;;;13.99;72.39
70229;BME280;57617;51.988;5.854;2022-09-20T06:50:15;101869.78;;;14.08;72.12
70229;BME280;57617;51.988;5.854;2022-09-20T06:52:41;101868.44;;;14.10;71.89
70229;BME280;57617;51.988;5.854;2022-09-20T06:55:20;101865.25;;;14.13;72.14
70229;BME280;57617;51.988;5.854;2022-09-20T06:57:46;101871.28;;;14.15;72.23
70229;BME280;57617;51.988;5.854;2022-09-20T07:00:13;101846.13;;;14.02;71.97
70229;BME280;57617;51.988;5.854;2022-09-20T07:02:40;101879.63;;;14.20;71.78
70229;BME280;57617;51.988;5.854;2022-09-20T07:05:12;101886.78;;;14.21;72.16
70229;BME280;57617;51.988;5.854;2022-09-20T07:07:38;101902.13;;;14.22;71.94
70229;BME280;57617;51.988;5.854;2022-09-20T07:10:03;101901.28;;;14.22;72.23
70229;BME280;57617;51.988;5.854;2022-09-20T07:12:29;101902.69;;;14.24;71.95
70229;BME280;57617;51.988;5.854;2022-09-20T07:14:57;101898.31;;;14.23;71.90
70229;BME280;57617;51.988;5.854;2022-09-20T07:17:22;101899.63;;;14.21;72.56
70229;BME280;57617;51.988;5.854;2022-09-20T07:19:48;101893.06;;;14.22;72.47
70229;BME280;57617;51.988;5.854;2022-09-20T07:22:13;101897.47;;;14.23;72.32
70229;BME280;57617;51.988;5.854;2022-09-20T07:24:38;101898.06;;;14.25;72.70
70229;BME280;57617;51.988;5.854;2022-09-20T07:27:05;101890.22;;;14.28;72.41
70229;BME280;57617;51.988;5.854;2022-09-20T07:29:30;101887.59;;;14.33;72.49
70229;BME280;57617;51.988;5.854;2022-09-20T07:31:56;101880.59;;;14.37;72.68
70229;BME280;57617;51.988;5.854;2022-09-20T07:34:22;101884.25;;;14.43;72.64
70229;BME280;57617;51.988;5.854;2022-09-20T07:36:49;101886.28;;;14.47;72.33
70229;BME280;57617;51.988;5.854;2022-09-20T07:39:15;101884.97;;;14.50;72.54
70229;BME280;57617;51.988;5.854;2022-09-20T07:41:41;101892.44;;;14.54;72.43
70229;BME280;57617;51.988;5.854;2022-09-20T07:44:12;101888.88;;;14.54;72.42
70229;BME280;57617;51.988;5.854;2022-09-20T07:46:53;101893.75;;;14.52;72.35
70229;BME280;57617;51.988;5.854;2022-09-20T07:49:19;101895.66;;;14.51;72.23
70229;BME280;57617;51.988;5.854;2022-09-20T07:51:45;101904.69;;;14.52;72.43
70229;BME280;57617;51.988;5.854;2022-09-20T07:54:10;101896.50;;;14.52;72.51
70229;BME280;57617;51.988;5.854;2022-09-20T07:56:36;101905.03;;;14.55;72.71
70229;BME280;57617;51.988;5.854;2022-09-20T07:59:01;101914.31;;;14.54;72.27
70229;BME280;57617;51.988;5.854;2022-09-20T08:01:27;101913.47;;;14.54;72.45
70229;BME280;57617;51.988;5.854;2022-09-20T08:03:52;101910.75;;;14.54;73.03
70229;BME280;57617;51.988;5.854;2022-09-20T08:06:18;101911.00;;;14.52;72.63
70229;BME280;57617;51.988;5.854;2022-09-20T08:08:45;101922.75;;;14.53;72.70
70229;BME280;57617;51.988;5.854;2022-09-20T08:11:16;101917.63;;;14.56;72.66
70229;BME280;57617;51.988;5.854;2022-09-20T08:13:44;101914.44;;;14.59;72.79
70229;BME280;57617;51.988;5.854;2022-09-20T08:16:10;101921.91;;;14.64;72.76
70229;BME280;57617;51.988;5.854;2022-09-20T08:18:38;101922.53;;;14.66;72.92
70229;BME280;57617;51.988;5.854;2022-09-20T08:21:08;101925.38;;;14.71;72.81
70229;BME280;57617;51.988;5.854;2022-09-20T08:23:35;101926.78;;;14.73;72.79
70229;BME280;57617;51.988;5.854;2022-09-20T08:26:01;101926.06;;;14.78;72.91
70229;BME280;57617;51.988;5.854;2022-09-20T08:28:27;101926.16;;;14.83;72.54
70229;BME280;57617;51.988;5.854;2022-09-20T08:31:02;101928.78;;;14.89;72.67
70229;BME280;57617;51.988;5.854;2022-09-20T08:33:28;101935.53;;;14.98;72.16
70229;BME280;57617;51.988;5.854;2022-09-20T08:35:53;101938.81;;;15.12;72.14
70229;BME280;57617;51.988;5.854;2022-09-20T08:38:19;101931.38;;;15.24;72.38
70229;BME280;57617;51.988;5.854;2022-09-20T08:40:44;101933.59;;;15.38;72.10
70229;BME280;57617;51.988;5.854;2022-09-20T08:43:10;101932.16;;;15.47;71.82
70229;BME280;57617;51.988;5.854;2022-09-20T08:45:37;101934.41;;;15.50;71.16
70229;BME280;57617;51.988;5.854;2022-09-20T08:48:06;101935.69;;;15.59;70.75
70229;BME280;57617;51.988;5.854;2022-09-20T08:50:35;101948.16;;;15.67;70.26
70229;BME280;57617;51.988;5.854;2022-09-20T08:53:01;101946.22;;;15.67;70.19
70229;BME280;57617;51.988;5.854;2022-09-20T08:55:29;101937.81;;;15.57;69.78
70229;BME280;57617;51.988;5.854;2022-09-20T08:58:00;101956.19;;;15.73;69.74
70229;BME280;57617;51.988;5.854;2022-09-20T09:00:30;101946.81;;;15.69;69.10
70229;BME280;57617;51.988;5.854;2022-09-20T09:02:59;101954.28;;;15.74;69.09
70229;BME280;57617;51.988;5.854;2022-09-20T09:05:31;101949.66;;;15.74;68.85
70229;BME280;57617;51.988;5.854;2022-09-20T09:07:58;101959.28;;;15.77;68.97
70229;BME280;57617;51.988;5.854;2022-09-20T09:10:35;101953.53;;;15.78;68.57
70229;BME280;57617;51.988;5.854;2022-09-20T09:13:03;101957.34;;;15.77;68.20
70229;BME280;57617;51.988;5.854;2022-09-20T09:15:32;101961.66;;;15.73;68.29
70229;BME280;57617;51.988;5.854;2022-09-20T09:17:58;101955.84;;;15.70;68.07
70229;BME280;57617;51.988;5.854;2022-09-20T09:20:24;101954.44;;;15.67;68.13
70229;BME280;57617;51.988;5.854;2022-09-20T09:23:01;101967.41;;;15.72;67.73
70229;BME280;57617;51.988;5.854;2022-09-20T09:25:32;101934.75;;;15.54;68.35
70229;BME280;57617;51.988;5.854;2022-09-20T09:30:31;101957.50;;;15.71;68.19
70229;BME280;57617;51.988;5.854;2022-09-20T09:35:39;101957.59;;;15.76;67.80
70229;BME280;57617;51.988;5.854;2022-09-20T09:38:04;101954.94;;;15.81;67.80
70229;BME280;57617;51.988;5.854;2022-09-20T09:40:34;101955.03;;;15.86;67.48
70229;BME280;57617;51.988;5.854;2022-09-20T09:43:01;101948.84;;;15.90;67.49
70229;BME280;57617;51.988;5.854;2022-09-20T09:45:34;101951.31;;;15.92;67.41
70229;BME280;57617;51.988;5.854;2022-09-20T09:48:21;101944.09;;;16.02;67.00
70229;BME280;57617;51.988;5.854;2022-09-20T09:50:47;101952.16;;;16.09;67.34
70229;BME280;57617;51.988;5.854;2022-09-20T09:53:22;101946.53;;;16.15;66.27
70229;BME280;57617;51.988;5.854;2022-09-20T09:55:53;101939.72;;;16.18;66.68
70229;BME280;57617;51.988;5.854;2022-09-20T09:58:33;101939.44;;;16.19;65.84
70229;BME280;57617;51.988;5.854;2022-09-20T10:01:07;101947.81;;;16.29;66.20
70229;BME280;57617;51.988;5.854;2022-09-20T10:04:00;101948.75;;;16.35;65.23
70229;BME280;57617;51.988;5.854;2022-09-20T10:06:35;101956.84;;;16.42;66.29
70229;BME280;57617;51.988;5.854;2022-09-20T10:09:18;101948.56;;;16.58;64.43
70229;BME280;57617;51.988;5.854;2022-09-20T10:14:44;101945.28;;;16.99;63.48
70229;BME280;57617;51.988;5.854;2022-09-20T10:17:28;101935.00;;;17.11;63.29
70229;BME280;57617;51.988;5.854;2022-09-20T10:23:10;101931.66;;;17.30;63.36
70229;BME280;57617;51.988;5.854;2022-09-20T10:25:59;101938.00;;;17.31;61.58
70229;BME280;57617;51.988;5.854;2022-09-20T10:34:24;101927.81;;;17.53;61.91
70229;BME280;57617;51.988;5.854;2022-09-20T10:36:57;101928.13;;;17.57;62.46
70229;BME280;57617;51.988;5.854;2022-09-20T10:39:38;101928.69;;;17.58;62.03
70229;BME280;57617;51.988;5.854;2022-09-20T10:45:23;101930.31;;;17.55;60.21
70229;BME280;57617;51.988;5.854;2022-09-20T10:50:58;101928.63;;;17.53;59.73
70229;BME280;57617;51.988;5.854;2022-09-20T10:56:36;101934.09;;;17.49;59.79
70229;BME280;57617;51.988;5.854;2022-09-20T11:01:54;101932.56;;;17.36;60.35
70229;BME280;57617;51.988;5.854;2022-09-20T11:04:55;101943.56;;;17.36;60.35
70229;BME280;57617;51.988;5.854;2022-09-20T11:08:00;101947.94;;;17.37;60.96
70229;BME280;57617;51.988;5.854;2022-09-20T11:10:35;101955.19;;;17.43;61.58
70229;BME280;57617;51.988;5.854;2022-09-20T11:13:18;101947.50;;;17.45;60.79
70229;BME280;57617;51.988;5.854;2022-09-20T11:18:56;101944.81;;;17.50;59.77
70229;BME280;57617;51.988;5.854;2022-09-20T11:21:34;101937.34;;;17.46;59.91
70229;BME280;57617;51.988;5.854;2022-09-20T11:24:26;101955.00;;;17.50;60.04
70229;BME280;57617;51.988;5.854;2022-09-20T11:26:58;101951.41;;;17.49;59.53
70229;BME280;57617;51.988;5.854;2022-09-20T11:29:38;101943.72;;;17.51;59.34
70229;BME280;57617;51.988;5.854;2022-09-20T11:32:13;101949.81;;;17.53;59.60
70229;BME280;57617;51.988;5.854;2022-09-20T11:34:49;101947.09;;;17.58;59.11
70229;BME280;57617;51.988;5.854;2022-09-20T11:37:16;101950.16;;;17.62;59.62
70229;BME280;57617;51.988;5.854;2022-09-20T11:40:00;101949.66;;;17.65;58.05
70229;BME280;57617;51.988;5.854;2022-09-20T11:42:33;101946.91;;;17.65;58.80
70229;BME280;57617;51.988;5.854;2022-09-20T11:45:00;101947.41;;;17.62;59.48
70229;BME280;57617;51.988;5.854;2022-09-20T11:47:47;101953.75;;;17.62;58.40
70229;BME280;57617;51.988;5.854;2022-09-20T11:50:39;101957.31;;;17.63;59.24
70229;BME280;57617;51.988;5.854;2022-09-20T11:53:20;101953.75;;;17.62;59.47
70229;BME280;57617;51.988;5.854;2022-09-20T11:55:56;101950.16;;;17.62;58.66
70229;BME280;57617;51.988;5.854;2022-09-20T11:58:26;101947.00;;;17.75;59.24
70229;BME280;57617;51.988;5.854;2022-09-20T12:00:54;101949.91;;;17.90;58.54
70229;BME280;57617;51.988;5.854;2022-09-20T12:03:36;101942.59;;;18.05;57.24
70229;BME280;57617;51.988;5.854;2022-09-20T12:06:07;101936.88;;;18.12;57.87
70229;BME280;57617;51.988;5.854;2022-09-20T12:08:38;101943.38;;;18.32;57.25
70229;BME280;57617;51.988;5.854;2022-09-20T12:11:06;101939.97;;;18.52;57.00
70229;BME280;57617;51.988;5.854;2022-09-20T12:13:36;101940.06;;;18.67;56.94
70229;BME280;57617;51.988;5.854;2022-09-20T12:16:04;101942.06;;;18.81;56.42
70229;BME280;57617;51.988;5.854;2022-09-20T12:21:13;101930.31;;;19.06;54.84
70229;BME280;57617;51.988;5.854;2022-09-20T12:23:45;101940.31;;;19.22;54.52
70229;BME280;57617;51.988;5.854;2022-09-20T12:26:13;101942.00;;;19.33;54.59
70229;BME280;57617;51.988;5.854;2022-09-20T12:28:59;101941.72;;;19.24;54.79
70229;BME280;57617;51.988;5.854;2022-09-20T12:36:26;101946.88;;;19.11;54.72
70229;BME280;57617;51.988;5.854;2022-09-20T12:38:59;101941.88;;;19.03;53.18
70229;BME280;57617;51.988;5.854;2022-09-20T12:41:27;101937.41;;;18.92;54.31
70229;BME280;57617;51.988;5.854;2022-09-20T12:44:02;101942.06;;;18.81;53.80
70229;BME280;57617;51.988;5.854;2022-09-20T12:46:41;101939.31;;;18.81;53.89
70229;BME280;57617;51.988;5.854;2022-09-20T12:52:20;101936.75;;;18.70;53.59
70229;BME280;57617;51.988;5.854;2022-09-20T12:55:06;101940.06;;;18.67;54.62
70229;BME280;57617;51.988;5.854;2022-09-20T12:57:33;101939.22;;;18.66;54.64
70229;BME280;57617;51.988;5.854;2022-09-20T13:00:00;101937.84;;;18.69;54.12
70229;BME280;57617;51.988;5.854;2022-09-20T13:02:54;101939.22;;;18.66;53.46
70229;BME280;57617;51.988;5.854;2022-09-20T13:05:33;101940.31;;;18.65;53.26
70229;BME280;57617;51.988;5.854;2022-09-20T13:08:26;101937.06;;;18.78;53.05
70229;BME280;57617;51.988;5.854;2022-09-20T13:13:50;101946.28;;;18.99;52.47
70229;BME280;57617;51.988;5.854;2022-09-20T13:16:32;101951.75;;;18.94;51.12
70229;BME280;57617;51.988;5.854;2022-09-20T13:19:06;101945.63;;;18.82;53.01
70229;BME280;57617;51.988;5.854;2022-09-20T13:21:40;101954.63;;;18.67;53.23
70229;BME280;57617;51.988;5.854;2022-09-20T13:24:07;101948.47;;;18.50;53.40
70229;BME280;57617;51.988;5.854;2022-09-20T13:26:40;101959.94;;;18.37;54.03
70229;BME280;57617;51.988;5.854;2022-09-20T13:29:21;101951.47;;;18.17;54.80
70229;BME280;57617;51.988;5.854;2022-09-20T13:31:46;101961.03;;;18.09;55.13
70229;BME280;57617;51.988;5.854;2022-09-20T13:34:20;101949.41;;;17.98;55.60
70229;BME280;57617;51.988;5.854;2022-09-20T13:36:47;101955.41;;;17.90;55.90
70229;BME280;57617;51.988;5.854;2022-09-20T13:39:31;101952.28;;;17.81;55.97
70229;BME280;57617;51.988;5.854;2022-09-20T13:42:03;101953.31;;;17.75;56.12
70229;BME280;57617;51.988;5.854;2022-09-20T13:44:31;101925.94;;;17.58;56.60
70229;BME280;57617;51.988;5.854;2022-09-20T13:46:59;101948.88;;;17.69;57.18
70229;BME280;57617;51.988;5.854;2022-09-20T13:49:24;101948.34;;;17.72;57.65
70229;BME280;57617;51.988;5.854;2022-09-20T13:51:49;101942.88;;;17.72;57.39
70229;BME280;57617;51.988;5.854;2022-09-20T13:56:50;101947.81;;;17.75;57.57
70229;BME280;57617;51.988;5.854;2022-09-20T13:59:15;101942.63;;;17.78;57.95
70229;BME280;57617;51.988;5.854;2022-09-20T14:01:48;101943.78;;;17.83;57.92
70229;BME280;57617;51.988;5.854;2022-09-20T14:04:15;101942.41;;;17.85;57.68
70229;BME280;57617;51.988;5.854;2022-09-20T14:06:41;101949.06;;;17.89;57.92
70229;BME280;57617;51.988;5.854;2022-09-20T14:09:12;101942.22;;;17.92;58.16
70229;BME280;57617;51.988;5.854;2022-09-20T14:11:42;101937.59;;;18.02;57.65
70229;BME280;57617;51.988;5.854;2022-09-20T14:14:11;101937.97;;;18.11;57.55
70229;BME280;57617;51.988;5.854;2022-09-20T14:16:40;101944.03;;;18.13;57.72
70229;BME280;57617;51.988;5.854;2022-09-20T14:19:10;101940.44;;;18.12;57.32
70229;BME280;57617;51.988;5.854;2022-09-20T14:21:38;101935.22;;;18.11;56.98
70229;BME280;57617;51.988;5.854;2022-09-20T14:24:22;101934.09;;;18.07;56.50
70229;BME280;57617;51.988;5.854;2022-09-20T14:27:17;101923.31;;;18.00;55.99
70229;BME280;57617;51.988;5.854;2022-09-20T14:29:46;101929.78;;;18.16;56.41
70229;BME280;57617;51.988;5.854;2022-09-20T14:34:44;101916.72;;;18.33;54.73
70229;BME280;57617;51.988;5.854;2022-09-20T14:37:22;101923.16;;;18.53;53.60
70229;BME280;57617;51.988;5.854;2022-09-20T14:39:53;101923.53;;;18.67;54.30
70229;BME280;57617;51.988;5.854;2022-09-20T14:42:26;101921.41;;;18.79;53.25
70229;BME280;57617;51.988;5.854;2022-09-20T14:44:53;101929.16;;;18.92;52.67
70229;BME280;57617;51.988;5.854;2022-09-20T14:47:26;101924.53;;;19.02;51.42
70229;BME280;57617;51.988;5.854;2022-09-20T14:49:52;101924.00;;;19.05;51.68
70229;BME280;57617;51.988;5.854;2022-09-20T14:57:32;101928.84;;;18.88;51.76
70229;BME280;57617;51.988;5.854;2022-09-20T15:00:04;101935.97;;;18.79;51.53
70229;BME280;57617;51.988;5.854;2022-09-20T15:02:29;101934.00;;;18.70;52.54
70229;BME280;57617;51.988;5.854;2022-09-20T15:04:56;101936.13;;;18.58;53.06
70229;BME280;57617;51.988;5.854;2022-09-20T15:07:24;101930.03;;;18.51;53.07
70229;BME280;57617;51.988;5.854;2022-09-20T15:09:49;101935.50;;;18.46;52.76
70229;BME280;57617;51.988;5.854;2022-09-20T15:12:17;101941.25;;;18.39;53.15
70229;BME280;57617;51.988;5.854;2022-09-20T15:14:42;101936.47;;;18.29;52.73
70229;BME280;57617;51.988;5.854;2022-09-20T15:17:14;101935.03;;;18.22;52.47
70229;BME280;57617;51.988;5.854;2022-09-20T15:19:40;101937.19;;;18.15;52.74
70229;BME280;57617;51.988;5.854;2022-09-20T15:22:08;101942.09;;;18.08;53.02
70229;BME280;57617;51.988;5.854;2022-09-20T15:24:34;101931.31;;;18.02;53.02
70229;BME280;57617;51.988;5.854;2022-09-20T15:26:59;101931.81;;;17.98;52.90
70229;BME280;57617;51.988;5.854;2022-09-20T15:29:24;101934.50;;;17.93;53.43
70229;BME280;57617;51.988;5.854;2022-09-20T15:31:50;101926.78;;;17.86;53.31
70229;BME280;57617;51.988;5.854;2022-09-20T15:34:15;101937.81;;;17.91;53.37
70229;BME280;57617;51.988;5.854;2022-09-20T15:36:41;101915.13;;;17.78;53.34
70229;BME280;57617;51.988;5.854;2022-09-20T15:39:07;101931.78;;;17.93;53.45
70229;BME280;57617;51.988;5.854;2022-09-20T15:41:32;101937.84;;;17.96;53.09
70229;BME280;57617;51.988;5.854;2022-09-20T15:43:58;101935.91;;;17.96;52.90
70229;BME280;57617;51.988;5.854;2022-09-20T15:46:24;101932.06;;;17.92;53.15
70229;BME280;57617;51.988;5.854;2022-09-20T15:48:52;101930.63;;;17.85;53.56
70229;BME280;57617;51.988;5.854;2022-09-20T15:51:18;101923.97;;;17.81;53.18
70229;BME280;57617;51.988;5.854;2022-09-20T15:53:45;101931.63;;;17.78;53.34
70229;BME280;57617;51.988;5.854;2022-09-20T15:56:17;101922.03;;;17.81;53.48
70229;BME280;57617;51.988;5.854;2022-09-20T15:58:47;101925.66;;;17.87;53.26
70229;BME280;57617;51.988;5.854;2022-09-20T16:01:13;101929.84;;;17.94;53.05
70229;BME280;57617;51.988;5.854;2022-09-20T16:03:40;101930.16;;;17.98;52.98
70229;BME280;57617;51.988;5.854;2022-09-20T16:06:06;101925.75;;;17.97;53.04
70229;BME280;57617;51.988;5.854;2022-09-20T16:08:35;101937.31;;;17.98;53.23
70229;BME280;57617;51.988;5.854;2022-09-20T16:11:01;101938.16;;;17.99;52.77
70229;BME280;57617;51.988;5.854;2022-09-20T16:13:27;101944.47;;;17.99;53.04